Time;durP1;ratioP1;P1;durP2;ratioP2;P2;SDS_P1;SDS_P2;PMS_P1;PMS_P2;Temp;Humidity;BMP_temperature;BMP_pressure;BME280_temperature;BME280_humidity;BME280_pressure;Samples;Min_cycle;Max_cycle;Signal;HPM_P1;HPM_P2
2021/06/07 00:01:06;;;;;;;;;;;24.30;52.30;;;;;;1579227;75;1121;-58
2021/06/07 00:03:08;;;;;;;;;;;24.30;52.30;;;;;;1572930;74;732;-58
2021/06/07 00:05:10;;;;;;;;;;;24.30;52.10;;;;;;1565941;74;917;-58
2021/06/07 00:07:12;;;;;;;;;;;24.30;52.10;;;;;;1575213;74;732;-58
2021/06/07 00:09:15;;;;;;;;;;;24.30;52.00;;;;;;1571540;74;762;-58
2021/06/07 00:11:17;;;;;;;;;;;24.40;52.10;;;;;;1563511;74;1132;-58
2021/06/07 00:13:19;;;;;;;;;;;24.30;52.00;;;;;;1565686;74;726;-59
2021/06/07 00:15:21;;;;;;;;;;;24.30;52.20;;;;;;1568697;74;768;-58
2021/06/07 00:17:23;;;;;;;;;;;24.30;52.10;;;;;;1566780;75;1930;-59
2021/06/07 00:19:27;;;;;;;;;;;24.30;52.10;;;;;;1566373;74;828;-59
2021/06/07 00:21:29;;;;;;;;;;;24.40;52.00;;;;;;1584438;74;1131;-59
2021/06/07 00:23:31;;;;;;;;;;;24.30;51.90;;;;;;1570920;74;675;-59
2021/06/07 00:25:33;;;;;;;;;;;24.40;51.70;;;;;;1566998;74;772;-58
2021/06/07 00:27:35;;;;;;;;;;;24.30;51.70;;;;;;1567728;75;633;-58
2021/06/07 00:29:37;;;;;;;;;;;24.30;51.70;;;;;;1565826;75;758;-58
2021/06/07 00:31:39;;;;;;;;;;;24.30;51.60;;;;;;1572847;74;1172;-58
2021/06/07 00:33:41;;;;;;;;;;;24.40;51.50;;;;;;1565413;74;663;-58
2021/06/07 00:35:43;;;;;;;;;;;24.40;51.50;;;;;;1569733;75;1932;-58
2021/06/07 00:37:45;;;;;;;;;;;24.40;51.50;;;;;;1574080;74;788;-55
2021/06/07 00:39:47;;;;;;;;;;;24.40;51.80;;;;;;1573469;74;780;-59
2021/06/07 00:41:49;;;;;;;;;;;24.40;51.60;;;;;;1568125;74;1109;-58
2021/06/07 00:43:55;;;;;;;;;;;24.30;51.80;;;;;;1568344;75;827;-58
2021/06/07 00:45:57;;;;;;;;;;;24.30;51.80;;;;;;1571330;75;1807;-59
2021/06/07 00:47:59;;;;;;;;;;;24.40;51.70;;;;;;1573927;74;793;-59
2021/06/07 00:50:01;;;;;;;;;;;24.30;51.70;;;;;;1565440;75;789;-58
2021/06/07 00:52:03;;;;;;;;;;;24.40;51.70;;;;;;1568867;74;1026;-58
2021/06/07 00:54:05;;;;;;;;;;;24.30;51.60;;;;;;1569405;74;742;-58
2021/06/07 00:56:08;;;;;;;;;;;24.30;51.70;;;;;;1580791;74;1942;-59
2021/06/07 00:58:10;;;;;;;;;;;24.40;51.50;;;;;;1574083;74;677;-58
2021/06/07 01:00:12;;;;;;;;;;;24.40;51.50;;;;;;1582832;74;667;-56
2021/06/07 01:02:14;;;;;;;;;;;24.30;51.50;;;;;;1576344;75;821;-57
2021/06/07 01:04:16;;;;;;;;;;;24.40;51.60;;;;;;1567963;75;802;-58
2021/06/07 01:06:18;;;;;;;;;;;24.30;51.70;;;;;;1578740;75;722;-59
2021/06/07 01:08:20;;;;;;;;;;;24.30;51.80;;;;;;1587529;75;796;-58
2021/06/07 01:10:23;;;;;;;;;;;24.30;51.60;;;;;;1574046;74;1123;-57
2021/06/07 01:12:25;;;;;;;;;;;24.40;51.50;;;;;;1571096;74;738;-58
2021/06/07 01:14:27;;;;;;;;;;;24.30;51.40;;;;;;1570494;75;816;-58
2021/06/07 01:16:29;;;;;;;;;;;24.40;51.30;;;;;;1574178;75;1946;-55
2021/06/07 01:18:31;;;;;;;;;;;24.40;51.50;;;;;;1577969;74;790;-58
2021/06/07 01:20:33;;;;;;;;;;;24.30;51.40;;;;;;1580707;74;1113;-59
2021/06/07 01:22:34;;;;;;;;;;;24.40;51.30;;;;;;1581937;75;774;-57
2021/06/07 01:24:36;;;;;;;;;;;24.40;51.30;;;;;;1575609;75;893;-58
2021/06/07 01:26:38;;;;;;;;;;;24.30;51.10;;;;;;1560140;75;720;-56
2021/06/07 01:28:40;;;;;;;;;;;24.40;51.20;;;;;;1580782;75;782;-56
2021/06/07 01:30:43;;;;;;;;;;;24.40;51.00;;;;;;1566628;75;1196;-58
2021/06/07 01:32:45;;;;;;;;;;;24.30;51.20;;;;;;1598641;74;794;-58
2021/06/07 01:34:47;;;;;;;;;;;24.30;51.40;;;;;;1578114;74;679;-57
2021/06/07 01:36:49;;;;;;;;;;;24.30;51.30;;;;;;1576230;74;1936;-54
2021/06/07 01:38:50;;;;;;;;;;;24.30;51.10;;;;;;1569852;74;730;-58
2021/06/07 01:40:53;;;;;;;;;;;24.30;51.20;;;;;;1570627;74;1159;-58
2021/06/07 01:42:55;;;;;;;;;;;24.40;51.10;;;;;;1573854;73;790;-55
2021/06/07 01:44:57;;;;;;;;;;;24.30;51.10;;;;;;1588376;73;731;-55
2021/06/07 01:46:59;;;;;;;;;;;24.40;51.20;;;;;;1595479;73;678;-58
2021/06/07 01:49:01;;;;;;;;;;;24.40;51.10;;;;;;1571412;73;713;-57
2021/06/07 01:51:04;;;;;;;;;;;24.30;51.00;;;;;;1561843;75;1179;-58
2021/06/07 01:53:06;;;;;;;;;;;24.30;51.00;;;;;;1573855;73;701;-54
2021/06/07 01:55:08;;;;;;;;;;;24.40;51.10;;;;;;1603085;73;808;-55
2021/06/07 01:57:10;;;;;;;;;;;24.30;51.10;;;;;;1591794;74;1934;-58
2021/06/07 01:59:12;;;;;;;;;;;24.30;51.10;;;;;;1565969;73;742;-56
2021/06/07 02:01:15;;;;;;;;;;;24.30;51.10;;;;;;1578586;73;1097;-57
2021/06/07 02:03:17;;;;;;;;;;;24.30;51.20;;;;;;1577648;75;754;-57
2021/06/07 02:05:20;;;;;;;;;;;24.30;51.10;;;;;;1564919;75;846;-57
2021/06/07 02:07:22;;;;;;;;;;;24.30;51.10;;;;;;1597946;74;775;-57
2021/06/07 02:09:24;;;;;;;;;;;24.30;51.00;;;;;;1576822;73;736;-58
2021/06/07 02:11:27;;;;;;;;;;;24.30;51.00;;;;;;1566550;74;1128;-58
2021/06/07 02:13:29;;;;;;;;;;;24.40;51.10;;;;;;1588697;73;691;-58
2021/06/07 02:15:30;;;;;;;;;;;24.30;51.40;;;;;;1588315;73;711;-56
2021/06/07 02:17:32;;;;;;;;;;;24.30;51.30;;;;;;1594448;73;1931;-56
2021/06/07 02:19:34;;;;;;;;;;;24.30;51.40;;;;;;1601442;73;770;-57
2021/06/07 02:21:36;;;;;;;;;;;24.30;51.40;;;;;;1596270;74;1146;-55
2021/06/07 02:23:38;;;;;;;;;;;24.40;51.60;;;;;;1591461;73;737;-58
2021/06/07 02:25:40;;;;;;;;;;;24.30;51.60;;;;;;1598076;73;736;-57
2021/06/07 02:27:42;;;;;;;;;;;24.30;51.70;;;;;;1593262;73;771;-57
2021/06/07 02:29:44;;;;;;;;;;;24.40;51.80;;;;;;1589879;73;770;-57
2021/06/07 02:31:46;;;;;;;;;;;24.30;51.80;;;;;;1585114;74;1136;-53
2021/06/07 02:33:49;;;;;;;;;;;24.40;51.70;;;;;;1587854;73;790;-58
2021/06/07 02:35:51;;;;;;;;;;;24.30;51.80;;;;;;1592069;73;787;-57
2021/06/07 02:37:53;;;;;;;;;;;24.40;51.70;;;;;;1594570;73;1942;-56
2021/06/07 02:39:55;;;;;;;;;;;24.30;51.80;;;;;;1599911;74;761;-55
2021/06/07 02:41:57;;;;;;;;;;;24.40;51.80;;;;;;1597995;73;1124;-55
2021/06/07 02:43:59;;;;;;;;;;;24.40;51.80;;;;;;1566432;75;796;-54
2021/06/07 02:46:01;;;;;;;;;;;24.30;51.90;;;;;;1599793;73;754;-56
2021/06/07 02:48:03;;;;;;;;;;;24.40;51.70;;;;;;1599024;73;825;-57
2021/06/07 02:50:05;;;;;;;;;;;24.40;51.80;;;;;;1588457;74;763;-58
2021/06/07 02:52:07;;;;;;;;;;;24.30;51.60;;;;;;1601506;74;1126;-54
2021/06/07 02:54:09;;;;;;;;;;;24.30;51.50;;;;;;1595511;74;807;-57
2021/06/07 02:56:11;;;;;;;;;;;24.40;51.50;;;;;;1608411;74;732;-58
2021/06/07 02:58:13;;;;;;;;;;;24.40;51.40;;;;;;1589042;74;1949;-59
2021/06/07 03:00:16;;;;;;;;;;;24.40;51.50;;;;;;1602044;74;1144;-57
2021/06/07 03:02:18;;;;;;;;;;;24.40;51.40;;;;;;1595773;73;696;-55
2021/06/07 03:04:20;;;;;;;;;;;24.30;51.50;;;;;;1597806;73;751;-58
2021/06/07 03:06:21;;;;;;;;;;;24.30;51.60;;;;;;1600726;74;777;-57
2021/06/07 03:08:24;;;;;;;;;;;24.30;51.40;;;;;;1598968;74;772;-57
2021/06/07 03:10:26;;;;;;;;;;;24.30;51.70;;;;;;1595559;74;1157;-55
2021/06/07 03:12:28;;;;;;;;;;;24.30;51.80;;;;;;1593196;73;767;-57
2021/06/07 03:14:29;;;;;;;;;;;24.30;51.90;;;;;;1603577;74;815;-58
2021/06/07 03:16:31;;;;;;;;;;;24.40;51.80;;;;;;1604139;74;663;-56
2021/06/07 03:18:33;;;;;;;;;;;24.30;51.80;;;;;;1605886;74;1937;-57
2021/06/07 03:20:35;;;;;;;;;;;24.30;51.90;;;;;;1600127;73;1190;-55
2021/06/07 03:22:37;;;;;;;;;;;24.30;51.80;;;;;;1599791;73;792;-57
2021/06/07 03:24:39;;;;;;;;;;;24.30;51.20;;;;;;1602243;74;750;-57
2021/06/07 03:26:41;;;;;;;;;;;24.20;51.00;;;;;;1590157;73;741;-58
2021/06/07 03:28:43;;;;;;;;;;;24.30;51.10;;;;;;1576259;75;726;-57
2021/06/07 03:30:45;;;;;;;;;;;24.20;51.00;;;;;;1580715;74;1138;-56
2021/06/07 03:32:47;;;;;;;;;;;24.30;50.90;;;;;;1592827;74;661;-56
2021/06/07 03:34:48;;;;;;;;;;;24.30;50.70;;;;;;1586561;73;818;-57
2021/06/07 03:36:50;;;;;;;;;;;24.30;50.70;;;;;;1598010;74;1928;-57
2021/06/07 03:38:52;;;;;;;;;;;24.30;50.70;;;;;;1589461;74;786;-55
2021/06/07 03:40:55;;;;;;;;;;;24.30;50.70;;;;;;1604849;73;1117;-57
2021/06/07 03:42:57;;;;;;;;;;;24.30;50.60;;;;;;1587623;74;712;-57
2021/06/07 03:44:59;;;;;;;;;;;24.30;50.50;;;;;;1583357;73;833;-56
2021/06/07 03:47:01;;;;;;;;;;;24.30;50.60;;;;;;1597805;74;729;-55
2021/06/07 03:49:03;;;;;;;;;;;24.30;50.50;;;;;;1600728;73;912;-57
2021/06/07 03:51:05;;;;;;;;;;;24.40;50.60;;;;;;1593027;74;1172;-57
2021/06/07 03:53:07;;;;;;;;;;;24.30;50.50;;;;;;1596034;74;707;-58
2021/06/07 03:55:09;;;;;;;;;;;24.30;50.50;;;;;;1603109;74;722;-57
2021/06/07 03:57:11;;;;;;;;;;;24.30;50.70;;;;;;1598429;73;1936;-57
2021/06/07 03:59:14;;;;;;;;;;;24.30;50.60;;;;;;1595910;73;734;-57
2021/06/07 04:01:16;;;;;;;;;;;24.30;50.60;;;;;;1586744;74;1131;-56
2021/06/07 04:03:18;;;;;;;;;;;24.30;50.50;;;;;;1562074;76;784;-55
2021/06/07 04:05:20;;;;;;;;;;;24.30;50.50;;;;;;1576603;73;719;-55
2021/06/07 04:07:21;;;;;;;;;;;24.30;50.70;;;;;;1560292;75;748;-57
2021/06/07 04:09:23;;;;;;;;;;;24.30;50.50;;;;;;1606076;73;727;-56
2021/06/07 04:11:25;;;;;;;;;;;24.30;50.50;;;;;;1607453;73;1165;-57
2021/06/07 04:13:27;;;;;;;;;;;24.20;50.50;;;;;;1605178;73;753;-56
2021/06/07 04:15:29;;;;;;;;;;;24.30;50.80;;;;;;1598555;73;758;-58
2021/06/07 04:17:31;;;;;;;;;;;24.20;50.60;;;;;;1595096;73;1928;-57
2021/06/07 04:19:33;;;;;;;;;;;24.20;50.40;;;;;;1604346;73;787;-57
2021/06/07 04:21:35;;;;;;;;;;;24.20;50.60;;;;;;1569269;75;1158;-54
2021/06/07 04:23:37;;;;;;;;;;;24.20;50.60;;;;;;1544038;75;1253;-58
2021/06/07 04:25:39;;;;;;;;;;;24.20;50.50;;;;;;1570894;74;758;-57
2021/06/07 04:27:40;;;;;;;;;;;24.20;50.40;;;;;;1571765;73;769;-57
2021/06/07 04:29:42;;;;;;;;;;;24.20;50.60;;;;;;1572872;75;787;-58
2021/06/07 04:31:44;;;;;;;;;;;24.20;50.40;;;;;;1579087;73;1113;-57
2021/06/07 04:33:46;;;;;;;;;;;24.20;50.60;;;;;;1552738;74;220469;-68
2021/06/07 04:35:48;;;;;;;;;;;24.20;50.50;;;;;;1526184;77;699;-69
2021/06/07 04:37:50;;;;;;;;;;;24.20;50.40;;;;;;1510838;77;1943;-70
2021/06/07 04:39:52;;;;;;;;;;;24.20;50.40;;;;;;1524506;77;800;-69
2021/06/07 04:41:54;;;;;;;;;;;24.20;50.50;;;;;;1521359;76;783;-69
2021/06/07 04:43:56;;;;;;;;;;;24.20;50.70;;;;;;1543980;75;1194;-71
2021/06/07 04:45:58;;;;;;;;;;;24.20;50.80;;;;;;1547678;75;784;-71
2021/06/07 04:48:00;;;;;;;;;;;24.30;51.10;;;;;;1537784;77;652;-69
2021/06/07 04:50:02;;;;;;;;;;;24.20;51.00;;;;;;1545445;77;781;-69
2021/06/07 04:52:05;;;;;;;;;;;24.20;51.00;;;;;;1542758;76;917;-68
2021/06/07 04:54:06;;;;;;;;;;;24.20;51.20;;;;;;1546779;76;1145;-68
2021/06/07 04:56:08;;;;;;;;;;;24.20;51.20;;;;;;1547356;75;716;-68
2021/06/07 04:58:14;;;;;;;;;;;24.20;51.40;;;;;;1537976;76;1943;-64
2021/06/07 05:00:17;;;;;;;;;;;24.20;50.90;;;;;;1532914;76;790;-67
2021/06/07 05:02:19;;;;;;;;;;;24.20;50.90;;;;;;1547091;77;724;-68
2021/06/07 05:04:20;;;;;;;;;;;24.20;51.00;;;;;;1544870;75;1137;-67
2021/06/07 05:06:22;;;;;;;;;;;24.20;50.90;;;;;;1550858;76;776;-67
2021/06/07 05:08:28;;;;;;;;;;;24.20;50.90;;;;;;1539352;77;764;-68
2021/06/07 05:10:29;;;;;;;;;;;24.20;50.90;;;;;;1540333;75;709;-67
2021/06/07 05:12:31;;;;;;;;;;;24.20;50.70;;;;;;1541169;76;794;-69
2021/06/07 05:14:33;;;;;;;;;;;24.20;51.00;;;;;;1542723;76;1130;-69
2021/06/07 05:16:35;;;;;;;;;;;24.20;51.10;;;;;;1541254;76;833;-69
2021/06/07 05:18:37;;;;;;;;;;;24.20;51.00;;;;;;1548010;76;1933;-68
2021/06/07 05:20:39;;;;;;;;;;;24.20;50.80;;;;;;1546063;76;702;-70
2021/06/07 05:22:41;;;;;;;;;;;24.20;51.00;;;;;;1538582;75;746;-72
2021/06/07 05:24:43;;;;;;;;;;;24.20;51.20;;;;;;1535592;76;1151;-70
2021/06/07 05:26:45;;;;;;;;;;;24.20;51.00;;;;;;1546917;76;790;-69
2021/06/07 05:28:47;;;;;;;;;;;24.20;51.00;;;;;;1546400;76;739;-71
2021/06/07 05:30:49;;;;;;;;;;;24.20;51.00;;;;;;1547521;75;731;-71
2021/06/07 05:32:51;;;;;;;;;;;24.20;50.90;;;;;;1533256;76;753;-69
2021/06/07 05:34:53;;;;;;;;;;;24.20;51.00;;;;;;1535342;76;1124;-65
2021/06/07 05:36:55;;;;;;;;;;;24.20;51.40;;;;;;1545036;75;727;-65
2021/06/07 05:38:57;;;;;;;;;;;24.10;51.90;;;;;;1540278;77;1937;-67
2021/06/07 05:40:59;;;;;;;;;;;24.00;51.30;;;;;;1540498;76;721;-68
2021/06/07 05:43:01;;;;;;;;;;;24.10;51.50;;;;;;1525103;75;812;-67
2021/06/07 05:45:06;;;;;;;;;;;24.20;51.50;;;;;;1534550;76;1153;-67
2021/06/07 05:47:08;;;;;;;;;;;24.20;51.40;;;;;;1539260;75;875;-69
2021/06/07 05:49:10;;;;;;;;;;;24.20;50.90;;;;;;1534537;75;799;-63
2021/06/07 05:51:12;;;;;;;;;;;24.20;51.50;;;;;;1537059;77;751;-68
2021/06/07 05:53:14;;;;;;;;;;;24.10;51.20;;;;;;1547283;75;849;-65
2021/06/07 05:55:18;;;;;;;;;;;24.20;51.40;;;;;;1536273;76;1099;-64
2021/06/07 05:57:19;;;;;;;;;;;24.20;51.40;;;;;;1538719;75;1807;-65
2021/06/07 05:59:21;;;;;;;;;;;24.20;51.30;;;;;;1545936;76;1937;-68
2021/06/07 06:01:24;;;;;;;;;;;24.20;51.30;;;;;;1547078;75;676;-66
2021/06/07 06:03:27;;;;;;;;;;;24.10;50.80;;;;;;1534670;76;778;-66
2021/06/07 06:05:29;;;;;;;;;;;24.00;50.80;;;;;;1546766;76;1060;-68
2021/06/07 06:07:32;;;;;;;;;;;24.00;51.00;;;;;;1544624;76;820;-66
2021/06/07 06:09:34;;;;;;;;;;;24.10;51.30;;;;;;1544609;75;739;-66
2021/06/07 06:11:35;;;;;;;;;;;24.10;51.00;;;;;;1543257;76;791;-72
2021/06/07 06:13:37;;;;;;;;;;;24.00;51.30;;;;;;1545179;77;1138;-70
2021/06/07 06:15:39;;;;;;;;;;;24.00;51.00;;;;;;1534044;77;730;-72
2021/06/07 06:17:41;;;;;;;;;;;24.00;51.00;;;;;;1541934;75;751;-67
2021/06/07 06:19:43;;;;;;;;;;;24.00;51.20;;;;;;1530317;75;1950;-67
2021/06/07 06:21:45;;;;;;;;;;;24.00;50.60;;;;;;1534961;76;786;-71
2021/06/07 06:23:47;;;;;;;;;;;24.00;50.70;;;;;;1541427;76;1189;-72
2021/06/07 06:25:49;;;;;;;;;;;24.00;50.90;;;;;;1535722;75;742;-68
2021/06/07 06:27:51;;;;;;;;;;;24.00;50.80;;;;;;1544820;75;760;-71
2021/06/07 06:29:52;;;;;;;;;;;24.00;50.70;;;;;;1538938;76;806;-68
2021/06/07 06:31:54;;;;;;;;;;;23.80;50.50;;;;;;1537251;76;728;-67
2021/06/07 06:33:56;;;;;;;;;;;23.80;50.80;;;;;;1547355;76;1186;-65
2021/06/07 06:35:58;;;;;;;;;;;23.80;50.70;;;;;;1536543;76;789;-68
2021/06/07 06:38:00;;;;;;;;;;;23.80;50.50;;;;;;1535674;75;1934;-68
2021/06/07 06:40:02;;;;;;;;;;;23.80;50.50;;;;;;1536450;76;827;-67
2021/06/07 06:42:05;;;;;;;;;;;23.80;50.40;;;;;;1540619;77;783;-66
2021/06/07 06:44:06;;;;;;;;;;;23.90;50.40;;;;;;1534152;76;1120;-68
2021/06/07 06:46:08;;;;;;;;;;;23.80;50.50;;;;;;1544164;76;712;-69
2021/06/07 06:48:10;;;;;;;;;;;23.80;50.40;;;;;;1533925;76;721;-66
2021/06/07 06:50:13;;;;;;;;;;;23.70;50.50;;;;;;1546582;76;752;-67
2021/06/07 06:52:15;;;;;;;;;;;23.60;50.60;;;;;;1533258;77;670;-69
2021/06/07 06:54:17;;;;;;;;;;;23.70;50.70;;;;;;1542833;77;1119;-66
2021/06/07 06:56:19;;;;;;;;;;;23.70;50.70;;;;;;1540090;75;679;-66
2021/06/07 06:58:21;;;;;;;;;;;23.70;50.70;;;;;;1546834;75;1943;-67
2021/06/07 07:00:23;;;;;;;;;;;23.70;50.70;;;;;;1529825;76;802;-67
2021/06/07 07:02:25;;;;;;;;;;;23.70;50.50;;;;;;1538666;76;729;-66
2021/06/07 07:04:27;;;;;;;;;;;23.70;50.50;;;;;;1534951;77;1101;-68
2021/06/07 07:06:29;;;;;;;;;;;23.80;50.40;;;;;;1540590;77;810;-64
2021/06/07 07:08:31;;;;;;;;;;;23.80;50.60;;;;;;1547334;76;798;-66
2021/06/07 07:10:33;;;;;;;;;;;23.80;50.40;;;;;;1541618;75;770;-67
2021/06/07 07:12:35;;;;;;;;;;;23.80;50.40;;;;;;1535004;76;799;-66
2021/06/07 07:14:37;;;;;;;;;;;23.80;50.30;;;;;;1538842;76;1143;-67
2021/06/07 07:16:39;;;;;;;;;;;23.70;50.30;;;;;;1542815;75;780;-67
2021/06/07 07:18:41;;;;;;;;;;;23.80;50.40;;;;;;1532277;77;1923;-66
2021/06/07 07:20:43;;;;;;;;;;;23.80;50.50;;;;;;1540270;77;798;-65
2021/06/07 07:22:45;;;;;;;;;;;23.90;50.50;;;;;;1537240;76;705;-66
2021/06/07 07:24:47;;;;;;;;;;;23.90;50.50;;;;;;1545662;76;1163;-67
2021/06/07 07:26:49;;;;;;;;;;;23.90;50.60;;;;;;1531697;77;781;-66
2021/06/07 07:28:51;;;;;;;;;;;23.90;50.60;;;;;;1540372;76;740;-65
2021/06/07 07:30:52;;;;;;;;;;;24.00;50.50;;;;;;1542989;76;754;-67
2021/06/07 07:32:55;;;;;;;;;;;23.90;50.40;;;;;;1537357;76;763;-66
2021/06/07 07:34:57;;;;;;;;;;;24.00;50.20;;;;;;1541170;75;1155;-68
2021/06/07 07:36:59;;;;;;;;;;;23.90;50.30;;;;;;1531759;76;824;-66
2021/06/07 07:39:01;;;;;;;;;;;23.90;50.20;;;;;;1542362;75;1951;-66
2021/06/07 07:41:03;;;;;;;;;;;23.90;50.10;;;;;;1538043;76;781;-67
2021/06/07 07:43:04;;;;;;;;;;;24.00;50.00;;;;;;1538082;76;789;-67
2021/06/07 07:45:07;;;;;;;;;;;24.00;50.00;;;;;;1543163;75;1161;-66
2021/06/07 07:47:09;;;;;;;;;;;24.00;50.00;;;;;;1541249;76;755;-66
2021/06/07 07:49:11;;;;;;;;;;;24.00;50.10;;;;;;1537481;76;756;-65
2021/06/07 07:51:13;;;;;;;;;;;24.10;50.10;;;;;;1545040;75;832;-69
2021/06/07 07:53:15;;;;;;;;;;;24.10;50.10;;;;;;1536707;75;770;-68
2021/06/07 07:55:21;;;;;;;;;;;24.00;50.00;;;;;;1531847;76;1092;-67
2021/06/07 07:57:25;;;;;;;;;;;24.00;49.90;;;;;;1539078;75;666;-67
2021/06/07 07:59:27;;;;;;;;;;;24.00;50.00;;;;;;1534517;75;1915;-67
2021/06/07 08:01:29;;;;;;;;;;;24.10;50.20;;;;;;1538932;76;933;-68
2021/06/07 08:03:31;;;;;;;;;;;24.00;50.10;;;;;;1547688;76;693;-67
2021/06/07 08:05:33;;;;;;;;;;;24.00;50.20;;;;;;1547692;76;1138;-67
2021/06/07 08:07:35;;;;;;;;;;;24.00;50.20;;;;;;1538535;76;747;-66
2021/06/07 08:09:37;;;;;;;;;;;24.20;50.20;;;;;;1541730;75;772;-69
2021/06/07 08:11:39;;;;;;;;;;;24.20;50.10;;;;;;1544269;75;795;-66
2021/06/07 08:13:41;;;;;;;;;;;24.20;50.00;;;;;;1539536;76;1116;-65
2021/06/07 08:15:42;;;;;;;;;;;24.20;50.20;;;;;;1529484;76;798;-66
2021/06/07 08:17:44;;;;;;;;;;;24.20;50.00;;;;;;1534791;77;855;-66
2021/06/07 08:19:46;;;;;;;;;;;24.20;50.00;;;;;;1538671;75;1952;-66
2021/06/07 08:21:48;;;;;;;;;;;24.10;50.00;;;;;;1544036;76;780;-66
2021/06/07 08:23:50;;;;;;;;;;;24.10;50.10;;;;;;1545288;76;1145;-66
2021/06/07 08:25:52;;;;;;;;;;;24.10;50.00;;;;;;1543090;77;789;-67
2021/06/07 08:27:54;;;;;;;;;;;24.10;50.10;;;;;;1539648;76;820;-67
2021/06/07 08:29:56;;;;;;;;;;;24.20;50.00;;;;;;1543421;76;754;-66
2021/06/07 08:31:58;;;;;;;;;;;24.00;49.90;;;;;;1540709;75;795;-67
2021/06/07 08:33:59;;;;;;;;;;;24.10;49.90;;;;;;1542929;76;1174;-67
2021/06/07 08:36:02;;;;;;;;;;;24.00;49.70;;;;;;1542017;76;766;-67
2021/06/07 08:38:04;;;;;;;;;;;24.00;49.90;;;;;;1546124;76;768;-67
2021/06/07 08:40:07;;;;;;;;;;;24.00;49.70;;;;;;1543601;75;1925;-66
2021/06/07 08:42:10;;;;;;;;;;;24.00;49.70;;;;;;1546624;76;948;-68
2021/06/07 08:44:12;;;;;;;;;;;23.90;49.80;;;;;;1547033;76;1178;-66
2021/06/07 08:46:14;;;;;;;;;;;24.00;49.90;;;;;;1540015;77;729;-67
2021/06/07 08:48:16;;;;;;;;;;;24.00;49.70;;;;;;1540297;75;815;-64
2021/06/07 08:50:19;;;;;;;;;;;24.10;49.80;;;;;;1543416;75;965;-66
2021/06/07 08:52:21;;;;;;;;;;;24.10;49.70;;;;;;1545642;77;807;-66
2021/06/07 08:54:23;;;;;;;;;;;24.20;49.90;;;;;;1541881;76;1134;-65
2021/06/07 08:56:25;;;;;;;;;;;24.10;49.90;;;;;;1545293;76;886;-66
2021/06/07 08:58:27;;;;;;;;;;;24.10;49.70;;;;;;1543952;75;790;-66
2021/06/07 09:00:30;;;;;;;;;;;24.20;49.70;;;;;;1546708;76;1931;-67
2021/06/07 09:02:33;;;;;;;;;;;24.10;49.60;;;;;;1547416;76;768;-66
2021/06/07 09:04:36;;;;;;;;;;;24.00;49.50;;;;;;1542788;75;1158;-67
2021/06/07 09:06:39;;;;;;;;;;;24.10;49.70;;;;;;1542226;77;1832;-66
2021/06/07 09:08:41;;;;;;;;;;;24.10;49.40;;;;;;1536948;75;877;-66
2021/06/07 09:10:49;;;;;;;;;;;24.00;49.40;;;;;;1546373;76;775;-67
2021/06/07 09:12:52;;;;;;;;;;;24.00;49.50;;;;;;1544655;76;805;-66
2021/06/07 09:14:54;;;;;;;;;;;24.00;49.50;;;;;;1547397;77;1189;-66
2021/06/07 09:16:56;;;;;;;;;;;24.00;49.40;;;;;;1544721;75;732;-66
2021/06/07 09:18:58;;;;;;;;;;;24.00;49.40;;;;;;1541112;76;1925;-67
2021/06/07 09:21:07;;;;;;;;;;;24.00;49.60;;;;;;1543838;75;729;-64
2021/06/07 09:23:10;;;;;;;;;;;24.00;49.60;;;;;;1541213;77;678;-66
2021/06/07 09:25:13;;;;;;;;;;;23.90;49.70;;;;;;1538832;76;1085;-66
2021/06/07 09:27:15;;;;;;;;;;;23.90;49.90;;;;;;1537637;75;727;-67
2021/06/07 09:29:21;;;;;;;;;;;23.90;50.00;;;;;;1540793;77;787;-66
2021/06/07 09:31:27;;;;;;;;;;;23.80;49.90;;;;;;1543232;76;778;-68
2021/06/07 09:33:30;;;;;;;;;;;23.90;50.00;;;;;;1543407;76;789;-67
2021/06/07 09:35:32;;;;;;;;;;;23.80;50.00;;;;;;1542178;76;1166;-68
2021/06/07 09:37:34;;;;;;;;;;;23.80;50.50;;;;;;1540763;75;786;-67
2021/06/07 09:39:36;;;;;;;;;;;23.80;50.30;;;;;;1535751;76;1929;-67
2021/06/07 09:41:45;;;;;;;;;;;23.80;50.40;;;;;;1539099;76;809;-68
2021/06/07 09:43:48;;;;;;;;;;;23.80;50.50;;;;;;1535661;76;1159;-67
2021/06/07 09:45:54;;;;;;;;;;;23.80;50.60;;;;;;1534166;75;725;-67
2021/06/07 09:47:53;;;;;;;;;;;23.70;50.50;;;;;;1538909;76;1618;-68
2021/06/07 09:50:03;;;;;;;;;;;23.70;50.50;;;;;;1514342;78;819;-69
2021/06/07 09:52:03;;;;;;;;;;;23.70;50.60;;;;;;1531330;76;1661;-67
2021/06/07 09:54:05;;;;;;;;;;;23.80;50.30;;;;;;1538719;75;1147;-69
2021/06/07 09:56:07;;;;;;;;;;;23.80;50.30;;;;;;1535043;76;845;-67
2021/06/07 09:58:09;;;;;;;;;;;23.80;50.90;;;;;;1529468;76;770;-67
2021/06/07 10:00:11;;;;;;;;;;;23.80;51.00;;;;;;1545688;76;1943;-66
2021/06/07 10:02:15;;;;;;;;;;;23.80;51.20;;;;;;1535097;75;961;-68
2021/06/07 10:04:16;;;;;;;;;;;23.90;51.30;;;;;;1547761;75;1847;-68
2021/06/07 10:06:19;;;;;;;;;;;23.80;51.00;;;;;;1535874;77;778;-68
2021/06/07 10:08:24;;;;;;;;;;;23.80;50.90;;;;;;1542055;77;684;-67
2021/06/07 10:10:26;;;;;;;;;;;23.80;51.20;;;;;;1546682;76;826;-68
2021/06/07 10:12:28;;;;;;;;;;;23.80;51.00;;;;;;1540220;75;771;-67
2021/06/07 10:14:30;;;;;;;;;;;23.90;51.20;;;;;;1529346;77;1187;-67
2021/06/07 10:16:32;;;;;;;;;;;23.90;51.00;;;;;;1529970;76;879;-67
2021/06/07 10:18:34;;;;;;;;;;;23.90;50.90;;;;;;1531162;77;812;-67
2021/06/07 10:20:51;;;;;;;;;;;23.90;50.80;;;;;;1534180;76;1937;-67
2021/06/07 10:22:53;;;;;;;;;;;24.00;50.80;;;;;;1540446;75;829;-69
2021/06/07 10:24:55;;;;;;;;;;;24.00;50.70;;;;;;1535468;76;1129;-67
2021/06/07 10:26:57;;;;;;;;;;;24.00;50.70;;;;;;1545055;76;786;-67
2021/06/07 10:28:58;;;;;;;;;;;23.90;50.80;;;;;;1540077;76;788;-66
2021/06/07 10:31:10;;;;;;;;;;;23.90;50.90;;;;;;1542293;76;752;-67
2021/06/07 10:33:25;;;;;;;;;;;24.00;50.90;;;;;;1541294;75;725;-66
2021/06/07 10:35:31;;;;;;;;;;;24.00;50.90;;;;;;1535520;76;1106;-68
2021/06/07 10:37:33;;;;;;;;;;;24.00;50.80;;;;;;1574230;73;221576;-66
2021/06/07 10:39:35;;;;;;;;;;;24.00;50.90;;;;;;1596655;73;1889;-65
2021/06/07 10:41:38;;;;;;;;;;;24.00;50.80;;;;;;1595355;73;760;-65
2021/06/07 10:43:47;;;;;;;;;;;23.90;50.70;;;;;;1583765;73;759;-67
2021/06/07 10:45:49;;;;;;;;;;;23.90;50.60;;;;;;1579116;73;750;-65
2021/06/07 10:47:51;;;;;;;;;;;24.00;50.60;;;;;;1618757;72;1138;-63
2021/06/07 10:50:00;;;;;;;;;;;23.90;50.80;;;;;;1631998;71;712;-63
2021/06/07 10:52:19;;;;;;;;;;;23.80;50.80;;;;;;1632648;72;1864;-64
2021/06/07 10:54:30;;;;;;;;;;;23.90;50.70;;;;;;1633235;71;837;-65
2021/06/07 10:56:32;;;;;;;;;;;23.90;50.80;;;;;;1631203;71;1110;-66
2021/06/07 10:58:34;;;;;;;;;;;23.80;50.70;;;;;;1632479;71;794;-64
2021/06/07 11:00:43;;;;;;;;;;;23.80;50.70;;;;;;1632397;71;1935;-64
2021/06/07 11:02:45;;;;;;;;;;;23.90;50.80;;;;;;1629027;72;723;-64
2021/06/07 11:04:48;;;;;;;;;;;23.80;50.70;;;;;;1632869;72;848;-64
2021/06/07 11:06:51;;;;;;;;;;;23.90;50.80;;;;;;1598863;73;1423;-64
2021/06/07 11:09:03;;;;;;;;;;;23.90;50.90;;;;;;1629607;71;800;-65
2021/06/07 11:11:06;;;;;;;;;;;23.90;51.00;;;;;;1629579;71;1504;-64
2021/06/07 11:13:15;;;;;;;;;;;23.90;50.80;;;;;;1625616;71;744;-65
2021/06/07 11:15:19;;;;;;;;;;;23.80;50.70;;;;;;1621032;72;775;-63
2021/06/07 11:17:25;;;;;;;;;;;23.90;51.00;;;;;;1628346;71;1178;-64
2021/06/07 11:19:26;;;;;;;;;;;23.90;51.00;;;;;;1632294;71;783;-65
2021/06/07 11:21:29;;;;;;;;;;;23.80;50.70;;;;;;1622751;72;1932;-66
2021/06/07 11:23:33;;;;;;;;;;;23.90;50.80;;;;;;1618243;71;737;-64
2021/06/07 11:25:40;;;;;;;;;;;23.80;50.70;;;;;;1622251;72;747;-65
2021/06/07 11:27:42;;;;;;;;;;;23.80;50.90;;;;;;1631807;71;1114;-65
2021/06/07 11:29:45;;;;;;;;;;;23.80;50.70;;;;;;1631146;72;822;-65
2021/06/07 11:31:48;;;;;;;;;;;23.80;50.70;;;;;;1628451;71;1437;-64
2021/06/07 11:34:00;;;;;;;;;;;23.90;50.70;;;;;;1627874;71;782;-65
2021/06/07 11:36:02;;;;;;;;;;;23.80;50.60;;;;;;1632719;72;884;-65
2021/06/07 11:38:22;;;;;;;;;;;23.90;50.70;;;;;;1632154;71;795;-66
2021/06/07 11:40:25;;;;;;;;;;;23.90;50.50;;;;;;1623573;71;1915;-67
2021/06/07 11:42:28;;;;;;;;;;;24.00;50.40;;;;;;1628391;71;1885;-64
2021/06/07 11:44:51;;;;;;;;;;;23.90;50.40;;;;;;1623991;71;813;-65
2021/06/07 11:46:53;;;;;;;;;;;23.90;50.40;;;;;;1632358;71;1188;-65
2021/06/07 11:49:08;;;;;;;;;;;23.90;50.60;;;;;;1627409;71;770;-64
2021/06/07 11:51:17;;;;;;;;;;;24.00;50.50;;;;;;1634325;72;800;-64
2021/06/07 11:53:21;;;;;;;;;;;24.00;50.50;;;;;;1617747;71;997;-64
2021/06/07 11:55:34;;;;;;;;;;;23.90;50.50;;;;;;1630323;71;713;-65
2021/06/07 11:57:33;;;;;;;;;;;23.90;50.70;;;;;;1624880;72;1141;-65
2021/06/07 11:59:36;;;;;;;;;;;23.80;50.80;;;;;;1626277;72;808;-63
2021/06/07 12:01:38;;;;;;;;;;;23.80;50.90;;;;;;1627502;72;1939;-62
2021/06/07 12:03:41;;;;;;;;;;;23.90;51.10;;;;;;1627587;71;739;-64
2021/06/07 12:05:43;;;;;;;;;;;23.90;50.80;;;;;;1603003;73;1183;-64
2021/06/07 12:07:46;;;;;;;;;;;23.70;50.50;;;;;;1626829;72;1143;-64
2021/06/07 12:09:48;;;;;;;;;;;23.80;50.50;;;;;;1629167;71;748;-65
2021/06/07 12:11:51;;;;;;;;;;;23.70;51.10;;;;;;1632752;71;718;-64